createdAt,value
2018-11-27T00:04:46.912Z,1.60
2018-11-27T00:09:51.964Z,1.50
2018-11-27T00:14:57.041Z,1.40
2018-11-27T00:20:02.026Z,1.40
2018-11-27T00:25:10.068Z,1.53
2018-11-27T00:30:16.865Z,1.57
2018-11-27T00:35:23.614Z,1.87
2018-11-27T00:40:29.755Z,2.43
2018-11-27T00:45:35.167Z,2.27
2018-11-27T00:50:40.097Z,2.23
2018-11-27T00:55:44.979Z,2.20
2018-11-27T01:00:50.935Z,2.00
2018-11-27T01:05:55.824Z,2.20
2018-11-27T01:11:00.745Z,2.20
2018-11-27T01:16:05.711Z,2.30
2018-11-27T01:21:10.800Z,2.37
2018-11-27T01:26:15.681Z,2.50
2018-11-27T01:31:21.477Z,3.07
2018-11-27T01:36:26.327Z,3.30
2018-11-27T01:41:31.330Z,3.60
2018-11-27T01:46:36.459Z,3.10
2018-11-27T01:51:41.432Z,2.87
2018-11-27T01:56:46.413Z,2.27
2018-11-27T02:01:51.580Z,2.27
2018-11-27T02:06:56.610Z,3.77
2018-11-27T02:12:01.613Z,2.40
2018-11-27T02:17:07.021Z,1.67
2018-11-27T02:22:12.080Z,1.63
2018-11-27T02:27:17.023Z,2.03
2018-11-27T02:32:22.286Z,2.07
2018-11-27T02:37:27.217Z,1.90
2018-11-27T02:42:32.273Z,2.20
2018-11-27T02:47:37.360Z,2.03
2018-11-27T02:52:42.429Z,1.67
2018-11-27T02:57:47.380Z,1.80
2018-11-27T03:02:52.466Z,1.40
2018-11-27T03:07:58.001Z,1.77
2018-11-27T03:13:03.055Z,1.33
2018-11-27T03:18:08.158Z,1.43
2018-11-27T03:23:13.149Z,1.40
2018-11-27T03:28:18.321Z,1.93
2018-11-27T03:33:23.892Z,1.40
2018-11-27T03:38:29.642Z,1.63
2018-11-27T03:43:34.859Z,1.50
2018-11-27T03:48:39.691Z,1.60
2018-11-27T03:53:44.547Z,1.73
2018-11-27T03:58:49.544Z,1.30
2018-11-27T04:03:54.441Z,1.27
2018-11-27T04:08:59.467Z,1.70
2018-11-27T04:14:04.347Z,1.20
2018-11-27T04:19:09.239Z,1.47
2018-11-27T04:24:14.086Z,1.50
2018-11-27T04:29:19.842Z,1.70
2018-11-27T04:34:24.785Z,1.40
2018-11-27T04:39:29.680Z,1.53
2018-11-27T04:44:34.634Z,2.43
2018-11-27T04:49:40.578Z,1.63
2018-11-27T04:54:45.647Z,1.80
2018-11-27T04:59:50.709Z,1.93
2018-11-27T05:04:55.514Z,0.90
2018-11-27T05:10:00.384Z,0.70
2018-11-27T05:15:05.482Z,0.70
2018-11-27T05:20:11.490Z,0.83
2018-11-27T05:25:17.616Z,0.63
2018-11-27T05:30:24.856Z,0.80
2018-11-27T05:35:30.839Z,0.53
2018-11-27T05:40:35.861Z,0.80
2018-11-27T05:45:41.118Z,0.80
2018-11-27T05:50:46.005Z,1.53
2018-11-27T05:55:50.970Z,1.20
2018-11-27T06:00:56.016Z,1.30
2018-11-27T06:06:01.033Z,1.00
2018-11-27T06:11:06.514Z,1.37
2018-11-27T06:16:12.034Z,1.50
2018-11-27T06:21:17.553Z,1.30
2018-11-27T06:26:22.624Z,1.20
2018-11-27T06:31:27.595Z,1.63
2018-11-27T06:36:33.055Z,1.43
2018-11-27T06:41:38.176Z,1.13
2018-11-27T06:46:44.259Z,1.30
2018-11-27T06:51:51.311Z,2.33
2018-11-27T06:56:56.330Z,1.23
2018-11-27T07:02:01.358Z,1.17
2018-11-27T07:07:06.533Z,1.43
2018-11-27T07:12:11.476Z,1.90
2018-11-27T07:17:17.419Z,2.07
2018-11-27T07:22:22.480Z,1.87
2018-11-27T07:27:27.539Z,2.23
2018-11-27T07:32:32.570Z,1.70
2018-11-27T07:37:37.687Z,1.60
2018-11-27T07:42:42.872Z,9.93
2018-11-27T07:48:04.041Z,2.20
2018-11-27T07:53:09.014Z,3.17
2018-11-27T07:58:13.913Z,2.37
2018-11-27T08:03:19.025Z,1.83
2018-11-27T08:08:34.430Z,1.37
2018-11-27T08:13:39.456Z,1.97
2018-11-27T08:18:44.931Z,5.20
2018-11-27T08:23:49.950Z,1.43
2018-11-27T08:28:55.950Z,1.83
2018-11-27T08:34:00.828Z,1.30
2018-11-27T08:39:08.549Z,2.60
2018-11-27T08:44:13.522Z,1.93
2018-11-27T08:49:18.386Z,1.40
2018-11-27T08:54:23.246Z,1.60
2018-11-27T08:59:29.582Z,1.57
2018-11-27T09:04:34.543Z,2.00
2018-11-27T09:09:39.475Z,1.77
2018-11-27T09:14:44.509Z,1.30
2018-11-27T09:19:49.560Z,1.50
2018-11-27T09:24:54.391Z,1.97
2018-11-27T09:29:59.593Z,3.60
2018-11-27T09:35:04.509Z,1.10
2018-11-27T09:40:25.352Z,2.10
2018-11-27T09:45:40.964Z,1.37
2018-11-27T09:50:45.807Z,1.67
2018-11-27T09:55:50.814Z,1.60
2018-11-27T10:00:55.620Z,1.23
2018-11-27T10:06:00.476Z,1.80
2018-11-27T10:11:05.395Z,2.00
2018-11-27T10:16:10.215Z,1.67
2018-11-27T10:21:15.316Z,2.40
2018-11-27T10:26:20.235Z,2.30
2018-11-27T10:31:25.180Z,1.77
2018-11-27T10:36:30.036Z,1.83
2018-11-27T10:41:34.982Z,2.00
2018-11-27T10:46:40.001Z,4.23
2018-11-27T10:51:44.941Z,7.70
2018-11-27T10:56:49.783Z,6.27
2018-11-27T11:01:55.794Z,3.93
2018-11-27T11:07:01.039Z,5.53
2018-11-27T11:12:06.052Z,2.50
2018-11-27T11:17:10.920Z,2.63
2018-11-27T11:22:16.375Z,2.80
2018-11-27T11:27:21.231Z,2.33
2018-11-27T11:32:26.254Z,2.93
2018-11-27T11:37:31.136Z,2.00
2018-11-27T11:42:36.039Z,4.70
2018-11-27T11:47:41.298Z,2.90
2018-11-27T11:52:49.455Z,2.47
2018-11-27T11:57:54.371Z,2.50
2018-11-27T12:02:59.279Z,1.50
2018-11-27T12:08:04.855Z,2.27
2018-11-27T12:13:11.028Z,2.10
2018-11-27T12:18:15.955Z,1.37
2018-11-27T12:23:20.836Z,1.50
2018-11-27T12:28:26.575Z,1.83
2018-11-27T12:33:31.568Z,1.87
2018-11-27T12:38:36.528Z,1.70
2018-11-27T12:43:41.573Z,1.83
2018-11-27T12:48:46.698Z,2.00
2018-11-27T12:53:51.689Z,1.53
2018-11-27T12:58:57.009Z,2.37
2018-11-27T13:04:01.999Z,1.20
2018-11-27T13:09:10.396Z,1.00
2018-11-27T13:14:15.261Z,1.27
2018-11-27T13:19:20.123Z,1.33
2018-11-27T13:24:25.293Z,1.20
2018-11-27T13:29:30.396Z,1.40
2018-11-27T13:34:35.282Z,2.47
2018-11-27T13:39:40.303Z,1.20
2018-11-27T13:44:45.145Z,1.73
2018-11-27T13:49:50.039Z,1.33
2018-11-27T13:54:55.179Z,1.70
2018-11-27T14:00:00.133Z,1.93
2018-11-27T14:05:05.649Z,1.67
2018-11-27T14:10:11.821Z,1.87
2018-11-27T14:22:45.160Z,1.57
2018-11-27T14:27:51.899Z,1.90
2018-11-27T14:32:57.059Z,1.60
2018-11-27T14:38:01.991Z,1.60
2018-11-27T14:43:06.968Z,2.40
2018-11-27T14:48:11.889Z,1.73
2018-11-27T14:53:16.823Z,2.00
2018-11-27T14:58:21.793Z,4.10
2018-11-27T15:03:27.074Z,2.10
2018-11-27T15:08:32.052Z,3.07
2018-11-27T15:13:36.966Z,2.10
2018-11-27T15:18:41.937Z,3.00
2018-11-27T15:23:46.983Z,2.50
2018-11-27T15:28:52.075Z,3.40
2018-11-27T15:33:57.099Z,4.73
2018-11-27T15:39:02.034Z,3.00
2018-11-27T15:44:07.196Z,4.73
2018-11-27T15:49:12.249Z,5.03
2018-11-27T15:54:17.263Z,3.87
2018-11-27T15:59:22.178Z,25.33
2018-11-27T16:04:28.058Z,12.23
2018-11-27T16:09:33.021Z,11.10
2018-11-27T16:14:38.091Z,6.20
2018-11-27T16:19:43.679Z,6.13
2018-11-27T16:24:48.610Z,5.80
2018-11-27T16:29:54.337Z,6.97
2018-11-27T16:34:59.416Z,9.13
2018-11-27T16:40:07.631Z,5.97
2018-11-27T16:45:14.575Z,5.53
2018-11-27T16:50:19.900Z,5.07
2018-11-27T16:55:25.810Z,28.17
2018-11-27T17:00:32.448Z,6.30
2018-11-27T17:05:41.054Z,5.60
2018-11-27T17:10:46.204Z,12.70
2018-11-27T17:15:51.211Z,5.90
2018-11-27T17:20:56.459Z,6.13
2018-11-27T17:26:03.950Z,13.90
2018-11-27T17:31:11.394Z,7.43
2018-11-27T17:36:17.284Z,6.53
2018-11-27T17:41:22.455Z,6.10
2018-11-27T17:46:27.470Z,7.17
2018-11-27T17:51:32.479Z,7.03
2018-11-27T17:56:37.549Z,6.47
2018-11-27T18:01:42.581Z,6.97
2018-11-27T18:06:47.603Z,6.13
2018-11-27T18:11:52.860Z,7.30
2018-11-27T18:16:57.860Z,9.15
2018-11-27T18:22:02.797Z,8.40
2018-11-27T18:27:08.931Z,11.90
2018-11-27T18:32:13.817Z,8.27
2018-11-27T18:37:18.684Z,9.00
2018-11-27T18:42:24.518Z,9.27
2018-11-27T18:47:30.509Z,11.80
2018-11-27T18:52:35.506Z,8.37
2018-11-27T18:57:40.991Z,6.20
2018-11-27T19:02:46.160Z,7.70
2018-11-27T19:07:51.262Z,7.37
2018-11-27T19:12:57.061Z,8.37
2018-11-27T19:18:09.347Z,14.93
2018-11-27T19:23:14.540Z,8.80
2018-11-27T19:28:19.439Z,7.23
2018-11-27T19:33:25.036Z,9.00
2018-11-27T19:38:30.618Z,8.20
2018-11-27T19:43:35.547Z,7.67
2018-11-27T19:48:40.487Z,8.27
2018-11-27T19:53:45.515Z,8.97
2018-11-27T19:58:50.528Z,6.80
2018-11-27T20:03:55.484Z,6.40
2018-11-27T20:09:01.910Z,12.40
2018-11-27T20:14:09.720Z,5.10
2018-11-27T20:19:14.703Z,8.70
2018-11-27T20:24:19.623Z,6.37
2018-11-27T20:29:24.799Z,8.07
2018-11-27T20:34:30.507Z,7.30
2018-11-27T20:39:35.373Z,7.60
2018-11-27T20:44:40.231Z,9.30
2018-11-27T20:49:45.240Z,11.00
2018-11-27T20:54:50.316Z,8.03
2018-11-27T20:59:55.410Z,7.43
2018-11-27T21:05:00.444Z,12.37
2018-11-27T21:10:08.340Z,6.03
2018-11-27T21:15:14.527Z,7.00
2018-11-27T21:20:20.026Z,6.30
2018-11-27T21:25:25.931Z,5.70
2018-11-27T21:30:30.937Z,4.53
2018-11-27T21:35:36.840Z,4.20
2018-11-27T21:40:41.723Z,4.10
2018-11-27T21:45:46.704Z,4.53
2018-11-27T21:50:51.839Z,5.00
2018-11-27T21:55:56.905Z,4.00
2018-11-27T22:01:01.865Z,3.53
2018-11-27T22:06:07.119Z,5.80
2018-11-27T22:11:12.206Z,3.47
2018-11-27T22:16:17.231Z,4.03
2018-11-27T22:21:22.447Z,3.90
2018-11-27T22:26:27.269Z,6.33
2018-11-27T22:31:32.171Z,3.83
2018-11-27T22:36:37.157Z,3.93
2018-11-27T22:41:42.224Z,4.10
2018-11-27T22:46:47.176Z,4.00
2018-11-27T22:51:52.250Z,4.10
2018-11-27T22:56:57.226Z,4.13
2018-11-27T23:02:02.208Z,4.83
2018-11-27T23:07:07.236Z,4.17
2018-11-27T23:12:12.343Z,4.93
2018-11-27T23:17:18.000Z,5.40
2018-11-27T23:22:24.133Z,5.60
2018-11-27T23:27:29.051Z,5.00
2018-11-27T23:32:34.065Z,6.57
2018-11-27T23:37:39.138Z,4.80
2018-11-27T23:42:44.365Z,4.57
2018-11-27T23:47:49.440Z,3.70
2018-11-27T23:52:54.361Z,3.07
2018-11-27T23:57:59.285Z,3.67
